createdAt,value
2023-05-11T00:00:44.785Z,2.46
2023-05-11T00:03:11.709Z,2.49
2023-05-11T00:05:38.286Z,2.40
2023-05-11T00:08:04.767Z,2.39
2023-05-11T00:10:31.338Z,2.34
2023-05-11T00:12:57.943Z,2.23
2023-05-11T00:15:24.623Z,2.17
2023-05-11T00:17:51.267Z,2.13
2023-05-11T00:20:18.366Z,2.10
2023-05-11T00:22:45.234Z,2.11
2023-05-11T00:25:11.794Z,2.18
2023-05-11T00:27:38.423Z,2.11
2023-05-11T00:30:05.794Z,1.93
2023-05-11T00:32:32.317Z,1.82
2023-05-11T00:34:59.841Z,2.19
2023-05-11T00:37:26.665Z,2.53
2023-05-11T00:39:53.271Z,2.41
2023-05-11T00:42:19.765Z,2.43
2023-05-11T00:44:47.132Z,2.46
2023-05-11T00:47:13.954Z,2.29
2023-05-11T00:49:42.172Z,2.37
2023-05-11T00:52:08.961Z,2.33
2023-05-11T00:54:36.269Z,2.55
2023-05-11T00:57:04.013Z,2.21
2023-05-11T00:59:30.768Z,2.31
2023-05-11T01:01:58.078Z,2.35
2023-05-11T01:04:25.639Z,2.51
2023-05-11T01:07:10.977Z,2.48
2023-05-11T01:09:44.482Z,2.89
2023-05-11T01:12:30.029Z,2.67
2023-05-11T01:15:13.944Z,2.98
2023-05-11T01:17:55.912Z,2.97
2023-05-11T01:20:29.380Z,3.09
2023-05-11T01:23:35.733Z,2.97
2023-05-11T01:26:23.100Z,2.82
2023-05-11T01:29:10.774Z,3.16
2023-05-11T01:31:42.902Z,3.34
2023-05-11T01:34:18.122Z,3.00
2023-05-11T01:36:54.673Z,2.85
2023-05-11T01:39:42.571Z,2.74
2023-05-11T01:42:10.748Z,2.70
2023-05-11T01:44:44.532Z,2.75
2023-05-11T01:47:15.349Z,2.89
2023-05-11T01:49:45.755Z,2.72
2023-05-11T01:52:16.278Z,2.74
2023-05-11T01:54:48.627Z,2.69
2023-05-11T01:57:17.998Z,2.75
2023-05-11T01:59:47.351Z,2.74
2023-05-11T02:02:16.524Z,2.92
2023-05-11T02:04:45.841Z,2.85
2023-05-11T02:07:16.629Z,3.21
2023-05-11T02:09:45.967Z,2.61
2023-05-11T02:12:18.993Z,3.84
2023-05-11T02:14:50.035Z,2.99
2023-05-11T02:17:24.102Z,3.02
2023-05-11T02:19:52.277Z,2.79
2023-05-11T02:22:24.357Z,3.04
2023-05-11T02:24:51.248Z,3.64
2023-05-11T02:27:17.827Z,3.72
2023-05-11T02:29:44.637Z,3.93
2023-05-11T02:32:20.108Z,3.69
2023-05-11T02:35:01.719Z,3.00
2023-05-11T02:37:32.943Z,2.49
2023-05-11T02:40:09.911Z,2.33
2023-05-11T02:42:41.333Z,2.78
2023-05-11T02:45:12.074Z,2.67
2023-05-11T02:47:47.845Z,2.47
2023-05-11T02:50:19.565Z,2.13
2023-05-11T02:52:51.199Z,2.15
2023-05-11T02:55:22.261Z,2.29
2023-05-11T02:57:49.059Z,2.99
2023-05-11T03:00:17.583Z,3.81
2023-05-11T03:02:44.399Z,4.03
2023-05-11T03:05:11.002Z,3.27
2023-05-11T03:07:38.282Z,3.00
2023-05-11T03:10:06.251Z,2.53
2023-05-11T03:12:34.549Z,2.99
2023-05-11T03:15:04.641Z,3.32
2023-05-11T03:17:32.459Z,3.41
2023-05-11T03:20:03.371Z,2.76
2023-05-11T03:22:32.651Z,2.58
2023-05-11T03:25:03.132Z,2.34
2023-05-11T03:27:31.962Z,2.19
2023-05-11T03:30:02.637Z,2.13
2023-05-11T03:32:29.326Z,2.53
2023-05-11T03:34:55.934Z,2.12
2023-05-11T03:37:23.724Z,2.60
2023-05-11T03:39:59.036Z,2.52
2023-05-11T03:42:29.125Z,2.02
2023-05-11T03:44:59.697Z,1.95
2023-05-11T03:47:29.164Z,1.87
2023-05-11T03:49:58.744Z,2.10
2023-05-11T03:52:26.570Z,2.16
2023-05-11T03:54:53.735Z,2.11
2023-05-11T03:57:20.206Z,2.01
2023-05-11T03:59:46.986Z,1.86
2023-05-11T04:02:13.814Z,1.56
2023-05-11T04:04:40.315Z,1.53
2023-05-11T04:07:06.987Z,1.69
2023-05-11T04:09:33.508Z,1.74
2023-05-11T04:12:00.079Z,1.73
2023-05-11T04:14:26.653Z,1.95
2023-05-11T04:16:53.105Z,2.43
2023-05-11T04:19:19.926Z,3.56
2023-05-11T04:21:47.168Z,4.65
2023-05-11T04:24:13.820Z,2.51
2023-05-11T04:26:40.308Z,2.46
2023-05-11T04:29:06.891Z,2.99
2023-05-11T04:31:33.950Z,3.03
2023-05-11T04:34:00.595Z,2.72
2023-05-11T04:36:27.109Z,3.03
2023-05-11T04:38:53.642Z,2.49
2023-05-11T04:41:20.716Z,2.64
2023-05-11T04:43:47.134Z,2.25
2023-05-11T04:46:13.648Z,2.36
2023-05-11T04:48:40.279Z,2.21
2023-05-11T04:51:06.878Z,1.94
2023-05-11T04:53:33.598Z,2.13
2023-05-11T04:56:00.160Z,2.30
2023-05-11T04:58:26.612Z,3.62
2023-05-11T05:00:53.186Z,2.80
2023-05-11T05:03:19.866Z,2.49
2023-05-11T05:05:46.305Z,3.65
2023-05-11T05:08:12.763Z,2.66
2023-05-11T05:10:39.221Z,2.39
2023-05-11T05:13:06.544Z,2.56
2023-05-11T05:15:33.081Z,2.16
2023-05-11T05:17:59.702Z,2.36
2023-05-11T05:20:26.255Z,3.15
2023-05-11T05:22:52.862Z,2.95
2023-05-11T05:25:19.363Z,3.76
2023-05-11T05:27:45.873Z,3.24
2023-05-11T05:30:12.849Z,2.88
2023-05-11T05:32:39.473Z,3.03
2023-05-11T05:35:06.721Z,3.15
2023-05-11T05:37:33.147Z,3.12
2023-05-11T05:39:59.770Z,3.72
2023-05-11T05:42:26.408Z,3.65
2023-05-11T05:44:52.846Z,3.90
2023-05-11T05:47:19.277Z,3.78
2023-05-11T05:49:45.828Z,3.76
2023-05-11T05:52:12.326Z,3.91
2023-05-11T05:54:38.936Z,3.97
2023-05-11T05:57:06.462Z,3.33
2023-05-11T05:59:33.079Z,2.90
2023-05-11T06:01:59.608Z,3.19
2023-05-11T06:04:26.078Z,3.25
2023-05-11T06:06:52.621Z,2.80
2023-05-11T06:09:19.201Z,3.13
2023-05-11T06:11:45.787Z,3.37
2023-05-11T06:14:12.276Z,3.32
2023-05-11T06:16:38.867Z,3.16
2023-05-11T06:19:05.812Z,3.15
2023-05-11T06:21:32.600Z,3.29
2023-05-11T06:23:59.129Z,3.64
2023-05-11T06:26:25.790Z,3.93
2023-05-11T06:28:52.694Z,3.39
2023-05-11T06:31:19.372Z,3.02
2023-05-11T06:33:45.957Z,3.30
2023-05-11T06:36:12.468Z,4.06
2023-05-11T06:38:38.883Z,4.06
2023-05-11T06:41:06.239Z,4.30
2023-05-11T06:43:33.590Z,4.26
2023-05-11T06:46:00.050Z,4.55
2023-05-11T06:48:29.700Z,4.65
2023-05-11T06:50:57.325Z,4.98
2023-05-11T06:53:23.840Z,5.26
2023-05-11T06:55:50.375Z,4.98
2023-05-11T06:58:20.384Z,5.66
2023-05-11T07:00:47.181Z,6.38
2023-05-11T07:03:13.809Z,6.32
2023-05-11T07:05:40.587Z,6.05
2023-05-11T07:08:07.247Z,5.81
2023-05-11T07:10:33.734Z,6.20
2023-05-11T07:13:00.249Z,5.88
2023-05-11T07:15:26.810Z,6.04
2023-05-11T07:17:53.472Z,6.08
2023-05-11T07:20:20.242Z,5.75
2023-05-11T07:22:47.054Z,5.55
2023-05-11T07:25:13.573Z,5.76
2023-05-11T07:27:40.187Z,5.97
2023-05-11T07:30:07.379Z,6.04
2023-05-11T07:32:33.949Z,5.67
2023-05-11T07:35:00.405Z,6.22
2023-05-11T07:37:26.918Z,6.51
2023-05-11T07:39:54.246Z,6.79
2023-05-11T07:42:20.680Z,7.29
2023-05-11T07:44:47.184Z,7.40
2023-05-11T07:47:13.644Z,7.01
2023-05-11T07:49:43.756Z,6.91
2023-05-11T07:52:11.598Z,7.38
2023-05-11T07:54:38.822Z,7.72
2023-05-11T07:57:05.765Z,7.68
2023-05-11T07:59:32.460Z,7.74
2023-05-11T08:01:59.552Z,7.31
2023-05-11T08:04:28.124Z,6.98
2023-05-11T08:06:54.902Z,7.26
2023-05-11T08:09:22.811Z,7.28
2023-05-11T08:11:49.791Z,7.35
2023-05-11T08:14:17.088Z,7.02
2023-05-11T08:16:43.796Z,6.70
2023-05-11T08:19:11.668Z,6.71
2023-05-11T08:21:38.455Z,7.01
2023-05-11T08:24:05.490Z,6.66
2023-05-11T08:26:33.089Z,6.73
2023-05-11T08:28:59.629Z,6.21
2023-05-11T08:31:26.252Z,6.25
2023-05-11T08:33:52.917Z,6.17
2023-05-11T08:36:19.747Z,5.90
2023-05-11T08:38:46.273Z,6.00
2023-05-11T08:41:13.375Z,5.61
2023-05-11T08:43:40.820Z,5.76
2023-05-11T08:46:11.106Z,5.45
2023-05-11T08:48:38.446Z,5.88
2023-05-11T08:51:05.468Z,5.38
2023-05-11T08:53:32.558Z,5.42
2023-05-11T08:56:01.125Z,5.19
2023-05-11T08:58:29.778Z,5.43
2023-05-11T09:00:59.002Z,5.06
2023-05-11T09:03:30.607Z,5.07
2023-05-11T09:05:59.654Z,5.00
2023-05-11T09:08:31.629Z,5.15
2023-05-11T09:10:59.898Z,5.49
2023-05-11T09:13:26.992Z,5.16
2023-05-11T09:15:53.903Z,5.31
2023-05-11T09:18:20.726Z,5.34
2023-05-11T09:20:50.020Z,5.04
2023-05-11T09:23:24.795Z,4.81
2023-05-11T09:25:51.340Z,4.69
2023-05-11T09:28:25.471Z,4.52
2023-05-11T09:30:53.813Z,5.12
2023-05-11T09:33:26.550Z,5.19
2023-05-11T09:35:53.946Z,5.02
2023-05-11T09:38:22.992Z,5.31
2023-05-11T09:40:55.822Z,5.53
2023-05-11T09:43:27.626Z,5.74
2023-05-11T09:45:57.859Z,5.87
2023-05-11T09:48:31.774Z,5.82
2023-05-11T09:51:03.955Z,5.43
2023-05-11T09:53:39.358Z,5.09
2023-05-11T09:56:06.417Z,5.38
2023-05-11T09:58:47.439Z,5.56
2023-05-11T10:01:15.390Z,5.43
2023-05-11T10:04:02.672Z,5.45
2023-05-11T10:06:53.377Z,5.62
2023-05-11T10:09:26.067Z,5.66
2023-05-11T10:11:55.501Z,5.77
2023-05-11T10:14:24.090Z,5.40
2023-05-11T10:16:53.713Z,5.67
2023-05-11T10:19:20.716Z,5.75
2023-05-11T10:21:48.260Z,5.55
2023-05-11T10:24:18.255Z,5.38
2023-05-11T10:26:48.140Z,5.34
2023-05-11T10:29:14.860Z,5.69
2023-05-11T10:31:43.630Z,5.77
2023-05-11T10:34:12.930Z,5.91
2023-05-11T10:36:39.457Z,5.87
2023-05-11T10:39:05.961Z,5.87
2023-05-11T10:42:05.896Z,5.69
2023-05-11T10:44:48.065Z,5.84
2023-05-11T10:47:42.273Z,6.62
2023-05-11T10:50:22.362Z,6.17
2023-05-11T10:53:28.649Z,5.87
2023-05-11T10:56:15.097Z,5.72
2023-05-11T10:59:17.310Z,5.78
2023-05-11T11:01:46.336Z,5.64
2023-05-11T11:04:14.232Z,5.86
2023-05-11T11:06:43.831Z,5.90
2023-05-11T11:09:16.223Z,5.68
2023-05-11T11:11:50.905Z,5.85
2023-05-11T11:14:19.337Z,5.81
2023-05-11T11:17:24.210Z,5.59
2023-05-11T11:19:51.220Z,5.03
2023-05-11T11:22:38.759Z,4.75
2023-05-11T11:25:11.869Z,5.03
2023-05-11T11:27:41.664Z,4.99
2023-05-11T11:30:22.885Z,4.75
2023-05-11T11:32:54.260Z,5.31
2023-05-11T11:35:42.155Z,5.58
2023-05-11T11:38:13.171Z,6.04
2023-05-11T11:43:19.025Z,5.75
2023-05-11T11:46:02.931Z,5.61
2023-05-11T11:48:35.386Z,5.95
2023-05-11T11:51:13.811Z,5.76
2023-05-11T11:53:41.370Z,5.28
2023-05-11T11:56:27.799Z,5.39
2023-05-11T11:59:05.202Z,5.84
2023-05-11T12:01:38.396Z,5.79
2023-05-11T12:04:04.970Z,5.70
2023-05-11T12:06:39.070Z,5.99
2023-05-11T12:09:07.139Z,6.01
2023-05-11T12:11:34.641Z,5.81
2023-05-11T12:14:02.897Z,5.73
2023-05-11T12:16:30.365Z,5.73
2023-05-11T12:19:01.921Z,5.59
2023-05-11T12:21:32.109Z,5.84
2023-05-11T12:24:07.117Z,5.46
2023-05-11T12:26:34.483Z,5.40
2023-05-11T12:29:18.358Z,5.67
2023-05-11T12:31:46.698Z,6.11
2023-05-11T12:34:17.401Z,5.88
2023-05-11T12:36:46.866Z,6.20
2023-05-11T12:39:20.905Z,6.35
2023-05-11T12:41:49.860Z,6.31
2023-05-11T12:44:18.570Z,6.84
2023-05-11T12:46:48.885Z,7.11
2023-05-11T12:49:24.609Z,6.90
2023-05-11T12:52:03.147Z,6.63
2023-05-11T12:54:38.166Z,6.12
2023-05-11T12:57:09.114Z,6.10
2023-05-11T12:59:40.014Z,6.51
2023-05-11T13:02:09.911Z,6.38
2023-05-11T13:04:38.825Z,6.51
2023-05-11T13:07:05.334Z,6.53
2023-05-11T13:09:31.920Z,6.17
2023-05-11T13:12:17.869Z,6.23
2023-05-11T13:14:47.729Z,5.85
2023-05-11T13:17:35.162Z,5.90
2023-05-11T13:20:23.711Z,6.36
2023-05-11T13:23:04.348Z,6.97
2023-05-11T13:25:32.447Z,7.16
2023-05-11T13:27:59.036Z,7.10
2023-05-11T13:30:25.587Z,7.10
2023-05-11T13:32:52.080Z,6.78
2023-05-11T13:35:19.098Z,7.06
2023-05-11T13:37:46.916Z,6.60
2023-05-11T13:40:13.851Z,8.13
2023-05-11T13:42:41.551Z,8.50
2023-05-11T13:45:08.730Z,6.78
2023-05-11T13:47:35.851Z,6.97
2023-05-11T13:50:03.606Z,6.83
2023-05-11T13:52:30.394Z,6.51
2023-05-11T13:54:56.935Z,6.53
2023-05-11T13:57:23.601Z,6.60
2023-05-11T13:59:51.173Z,6.42
2023-05-11T14:02:17.648Z,6.63
2023-05-11T14:04:44.169Z,6.47
2023-05-11T14:07:10.825Z,6.60
2023-05-11T14:09:37.284Z,6.76
2023-05-11T14:12:04.223Z,6.88
2023-05-11T14:14:30.755Z,6.52
2023-05-11T14:16:57.436Z,6.27
2023-05-11T14:19:23.979Z,6.90
2023-05-11T14:21:50.518Z,7.05
2023-05-11T14:24:17.019Z,7.55
2023-05-11T14:26:43.600Z,7.28
2023-05-11T14:29:10.334Z,7.36
2023-05-11T14:31:37.418Z,7.03
2023-05-11T14:34:04.883Z,7.22
2023-05-11T14:36:31.978Z,7.58
2023-05-11T14:38:58.591Z,7.55
2023-05-11T14:41:25.665Z,7.71
2023-05-11T14:43:52.307Z,7.78
2023-05-11T14:46:19.497Z,8.23
2023-05-11T14:48:46.331Z,7.81
2023-05-11T14:51:12.862Z,7.78
2023-05-11T14:53:39.532Z,8.01
2023-05-11T14:56:06.819Z,7.70
2023-05-11T14:58:33.376Z,7.94
2023-05-11T15:00:59.908Z,7.59
2023-05-11T15:03:26.708Z,7.69
2023-05-11T15:05:53.331Z,7.56
2023-05-11T15:08:29.615Z,7.70
2023-05-11T15:10:58.396Z,7.77
2023-05-11T15:13:25.128Z,7.82
2023-05-11T15:15:51.910Z,7.85
2023-05-11T15:18:18.963Z,7.79
2023-05-11T15:20:47.109Z,8.22
2023-05-11T15:23:16.760Z,7.74
2023-05-11T15:25:44.478Z,8.36
2023-05-11T15:28:11.388Z,8.62
2023-05-11T15:30:38.401Z,8.67
2023-05-11T15:33:05.170Z,8.44
2023-05-11T15:35:31.685Z,8.91
2023-05-11T15:37:58.160Z,9.20
2023-05-11T15:40:24.755Z,8.65
2023-05-11T15:42:51.292Z,8.36
2023-05-11T15:45:18.229Z,9.02
2023-05-11T15:47:45.005Z,9.13
2023-05-11T15:50:12.782Z,9.06
2023-05-11T15:52:40.954Z,8.94
2023-05-11T15:55:07.858Z,8.12
2023-05-11T15:57:36.705Z,7.67
2023-05-11T16:00:04.748Z,8.06
2023-05-11T16:02:31.598Z,8.44
2023-05-11T16:04:58.447Z,8.16
2023-05-11T16:07:25.016Z,8.27
2023-05-11T16:09:51.580Z,8.15
2023-05-11T16:12:18.051Z,8.28
2023-05-11T16:14:44.523Z,8.93
2023-05-11T16:17:11.563Z,8.56
2023-05-11T16:19:38.204Z,8.45
2023-05-11T16:22:04.764Z,8.51
2023-05-11T16:24:34.321Z,9.04
2023-05-11T16:27:01.138Z,8.27
2023-05-11T16:29:27.579Z,8.48
2023-05-11T16:31:54.124Z,8.82
2023-05-11T16:34:20.658Z,8.67
2023-05-11T16:36:47.223Z,9.20
2023-05-11T16:39:13.726Z,9.63
2023-05-11T16:41:40.195Z,9.40
2023-05-11T16:44:06.783Z,10.43
2023-05-11T16:46:33.392Z,10.15
2023-05-11T16:48:59.998Z,9.22
2023-05-11T16:51:26.770Z,9.65
2023-05-11T16:53:53.286Z,8.67
2023-05-11T16:56:19.833Z,9.23
2023-05-11T16:58:46.385Z,7.96
2023-05-11T17:01:12.971Z,7.19
2023-05-11T17:03:39.515Z,7.38
2023-05-11T17:06:06.373Z,7.09
2023-05-11T17:08:34.192Z,6.91
2023-05-11T17:11:00.788Z,6.79
2023-05-11T17:13:27.403Z,6.50
2023-05-11T17:15:56.114Z,6.25
2023-05-11T17:18:24.021Z,6.14
2023-05-11T17:20:54.269Z,6.31
2023-05-11T17:23:20.803Z,6.40
2023-05-11T17:25:47.885Z,6.38
2023-05-11T17:28:18.714Z,6.31
2023-05-11T17:30:48.617Z,6.28
2023-05-11T17:33:16.051Z,6.12
2023-05-11T17:35:43.203Z,6.12
2023-05-11T17:38:09.701Z,6.62
2023-05-11T17:40:36.201Z,6.44
2023-05-11T17:43:02.757Z,5.92
2023-05-11T17:45:29.361Z,6.00
2023-05-11T17:47:55.970Z,5.95
2023-05-11T17:50:23.430Z,5.93
2023-05-11T17:52:51.236Z,5.71
2023-05-11T17:55:19.322Z,5.77
2023-05-11T17:57:47.002Z,5.48
2023-05-11T18:00:14.150Z,5.12
2023-05-11T18:02:40.928Z,5.33
2023-05-11T18:05:07.960Z,5.37
2023-05-11T18:07:34.566Z,5.15
2023-05-11T18:10:01.036Z,5.06
2023-05-11T18:12:27.604Z,4.48
2023-05-11T18:14:54.082Z,4.20
2023-05-11T18:17:20.912Z,4.33
2023-05-11T18:19:47.543Z,4.50
2023-05-11T18:22:14.074Z,4.16
2023-05-11T18:24:40.609Z,4.36
2023-05-11T18:27:07.095Z,4.24
2023-05-11T18:29:33.644Z,4.17
2023-05-11T18:32:00.249Z,4.05
2023-05-11T18:34:27.420Z,4.13
2023-05-11T18:36:53.836Z,4.30
2023-05-11T18:39:20.246Z,4.22
2023-05-11T18:41:47.155Z,4.44
2023-05-11T18:44:15.070Z,4.48
2023-05-11T18:46:42.152Z,3.91
2023-05-11T18:49:08.837Z,4.04
2023-05-11T18:51:35.321Z,4.24
2023-05-11T18:54:02.070Z,4.10
2023-05-11T18:56:28.579Z,3.91
2023-05-11T18:58:55.056Z,4.00
2023-05-11T19:01:24.194Z,4.31
2023-05-11T19:03:56.301Z,4.55
2023-05-11T19:06:22.845Z,5.06
2023-05-11T19:08:50.919Z,5.45
2023-05-11T19:11:18.003Z,5.23
2023-05-11T19:13:44.863Z,5.26
2023-05-11T19:16:11.435Z,5.97
2023-05-11T19:18:39.884Z,5.77
2023-05-11T19:21:06.830Z,5.70
2023-05-11T19:23:33.619Z,5.49
2023-05-11T19:26:00.318Z,5.61
2023-05-11T19:28:26.876Z,6.02
2023-05-11T19:31:09.176Z,5.79
2023-05-11T19:33:36.073Z,5.50
2023-05-11T19:36:03.406Z,6.21
2023-05-11T19:38:29.979Z,6.05
2023-05-11T19:40:56.605Z,6.20
2023-05-11T19:43:23.579Z,6.63
2023-05-11T19:45:50.110Z,6.44
2023-05-11T19:48:16.922Z,6.88
2023-05-11T19:50:44.345Z,5.71
2023-05-11T19:53:11.084Z,5.87
2023-05-11T19:55:40.207Z,6.06
2023-05-11T19:58:07.274Z,5.48
2023-05-11T20:00:33.853Z,5.92
2023-05-11T20:03:01.153Z,6.38
2023-05-11T20:05:28.058Z,6.17
2023-05-11T20:07:54.549Z,6.16
2023-05-11T20:10:21.319Z,5.85
2023-05-11T20:12:47.979Z,5.49
2023-05-11T20:15:15.015Z,5.20
2023-05-11T20:17:41.552Z,5.46
2023-05-11T20:20:08.999Z,5.85
2023-05-11T20:22:36.917Z,6.27
2023-05-11T20:25:11.650Z,6.01
2023-05-11T20:27:44.374Z,5.54
2023-05-11T20:30:11.530Z,6.04
2023-05-11T20:32:38.002Z,5.82
2023-05-11T20:35:05.986Z,6.13
2023-05-11T20:37:32.570Z,6.31
2023-05-11T20:39:59.238Z,6.16
2023-05-11T20:42:27.039Z,5.94
2023-05-11T20:44:53.987Z,6.23
2023-05-11T20:47:20.546Z,6.20
2023-05-11T20:49:47.776Z,6.06
2023-05-11T20:52:14.307Z,6.35
2023-05-11T20:54:40.812Z,6.70
2023-05-11T20:57:08.239Z,7.75
2023-05-11T21:02:04.446Z,8.09
2023-05-11T21:04:31.561Z,6.96
2023-05-11T21:06:58.464Z,6.33
2023-05-11T21:09:25.347Z,6.67
2023-05-11T21:11:51.978Z,6.78
2023-05-11T21:14:18.645Z,6.92
2023-05-11T21:16:45.186Z,7.21
2023-05-11T21:19:11.931Z,7.64
2023-05-11T21:21:38.898Z,7.86
2023-05-11T21:24:06.199Z,7.47
2023-05-11T21:26:32.745Z,6.55
2023-05-11T21:28:59.292Z,7.14
2023-05-11T21:31:25.957Z,7.38
2023-05-11T21:33:52.686Z,6.32
2023-05-11T21:36:19.350Z,6.00
2023-05-11T21:38:45.808Z,6.61
2023-05-11T21:41:12.307Z,6.32
2023-05-11T21:43:38.833Z,6.16
2023-05-11T21:46:06.079Z,6.71
2023-05-11T21:48:32.753Z,6.53
2023-05-11T21:50:59.241Z,6.45
2023-05-11T21:53:25.752Z,6.88
2023-05-11T21:55:52.223Z,7.23
2023-05-11T21:58:19.069Z,6.47
2023-05-11T22:00:46.358Z,7.10
2023-05-11T22:03:13.335Z,6.75
2023-05-11T22:05:40.037Z,6.85
2023-05-11T22:08:14.840Z,7.05
2023-05-11T22:10:41.705Z,7.37
2023-05-11T22:13:08.229Z,7.04
2023-05-11T22:15:34.664Z,7.04
2023-05-11T22:18:01.242Z,7.03
2023-05-11T22:20:27.880Z,7.56
2023-05-11T22:22:54.393Z,7.49
2023-05-11T22:25:20.839Z,7.27
2023-05-11T22:27:47.793Z,7.57
2023-05-11T22:30:14.958Z,7.48
2023-05-11T22:32:41.815Z,6.88
2023-05-11T22:35:09.064Z,7.17
2023-05-11T22:37:37.535Z,6.64
2023-05-11T22:40:05.210Z,6.59
2023-05-11T22:42:32.740Z,6.89
2023-05-11T22:44:59.363Z,7.06
2023-05-11T22:47:26.306Z,7.05
2023-05-11T22:49:52.880Z,6.86
2023-05-11T22:52:19.385Z,7.01
2023-05-11T22:54:46.299Z,6.78
2023-05-11T22:57:22.560Z,6.71
2023-05-11T22:59:49.054Z,6.97
2023-05-11T23:02:15.495Z,7.12
2023-05-11T23:04:42.098Z,6.84
2023-05-11T23:07:11.991Z,6.88
2023-05-11T23:09:38.440Z,6.62
2023-05-11T23:12:05.599Z,6.75
2023-05-11T23:14:32.123Z,6.54
2023-05-11T23:16:58.717Z,6.65
2023-05-11T23:19:25.583Z,6.77
2023-05-11T23:21:52.422Z,6.53
2023-05-11T23:24:19.188Z,6.85
2023-05-11T23:26:45.714Z,6.66
2023-05-11T23:29:12.324Z,6.77
2023-05-11T23:31:38.903Z,6.99
2023-05-11T23:34:05.384Z,6.46
2023-05-11T23:36:32.253Z,7.10
2023-05-11T23:38:58.719Z,6.93
2023-05-11T23:41:25.229Z,6.74
2023-05-11T23:43:51.664Z,6.94
2023-05-11T23:46:18.237Z,7.06
2023-05-11T23:48:44.635Z,6.86
2023-05-11T23:51:11.096Z,6.86
2023-05-11T23:53:38.140Z,6.91
2023-05-11T23:56:06.381Z,6.88
2023-05-11T23:58:32.930Z,7.20
